Waterford, California
Current Conditions -  °F | °C
As of 11:53 AM on Saturday 20 Dec 2014 (Local Time) from KMOD Reporting Station
Haze Haze  
Wind Chill: 13°   Ceiling: 900
Heat Index: 13°   Visibility: 6mi
Dew Point: 11°   Wind: 6mph
Humidity: 87%   Direction: 100°E
Pressure: 30.22"   Gusts: NA
Location:  37.64°N, 120.76°W
Report Text: KMOD 201953Z 10005KT 6SM BR BKN009 BKN018 OVC050 13/11 A3022 RMK AO2 CIG 007V012 SLP235 T01330111
Loading
Personal Weather Stations






























Interactive Weather Map New forecast layout! Learn more

10-Day Weather Forecast

Advertisements
Track Severe Weather on mobile